sensor_id;sensor_type;location;lat;lon;timestamp;P1;durP1;ratioP1;P2;durP2;ratioP2
23222;SDS011;11780;13.904;100.620;2023-07-28T00:04:02;7.68;;;3.60;;
23222;SDS011;11780;13.904;100.620;2023-07-28T00:06:36;11.63;;;4.90;;
23222;SDS011;11780;13.904;100.620;2023-07-28T00:09:38;12.20;;;4.38;;
23222;SDS011;11780;13.904;100.620;2023-07-28T00:12:08;6.67;;;4.23;;
23222;SDS011;11780;13.904;100.620;2023-07-28T00:14:39;11.60;;;4.55;;
23222;SDS011;11780;13.904;100.620;2023-07-28T00:17:09;9.02;;;4.03;;
23222;SDS011;11780;13.904;100.620;2023-07-28T00:19:39;8.88;;;4.40;;
23222;SDS011;11780;13.904;100.620;2023-07-28T00:22:10;9.70;;;4.32;;
23222;SDS011;11780;13.904;100.620;2023-07-28T00:24:40;9.35;;;4.85;;
23222;SDS011;11780;13.904;100.620;2023-07-28T00:27:10;8.45;;;4.38;;
23222;SDS011;11780;13.904;100.620;2023-07-28T00:29:44;7.40;;;4.43;;
23222;SDS011;11780;13.904;100.620;2023-07-28T00:32:14;8.70;;;4.20;;
23222;SDS011;11780;13.904;100.620;2023-07-28T00:34:44;6.78;;;3.75;;
23222;SDS011;11780;13.904;100.620;2023-07-28T00:37:16;8.32;;;4.30;;
23222;SDS011;11780;13.904;100.620;2023-07-28T00:39:47;10.38;;;4.80;;
23222;SDS011;11780;13.904;100.620;2023-07-28T00:42:17;6.88;;;3.97;;
23222;SDS011;11780;13.904;100.620;2023-07-28T00:44:47;8.53;;;4.20;;
23222;SDS011;11780;13.904;100.620;2023-07-28T00:47:18;8.43;;;4.00;;
23222;SDS011;11780;13.904;100.620;2023-07-28T00:49:48;10.98;;;4.22;;
23222;SDS011;11780;13.904;100.620;2023-07-28T00:52:19;9.20;;;3.70;;
23222;SDS011;11780;13.904;100.620;2023-07-28T00:54:49;6.75;;;3.65;;
23222;SDS011;11780;13.904;100.620;2023-07-28T00:57:19;9.70;;;3.78;;
23222;SDS011;11780;13.904;100.620;2023-07-28T00:59:50;8.40;;;3.72;;
23222;SDS011;11780;13.904;100.620;2023-07-28T01:02:20;6.53;;;3.53;;
23222;SDS011;11780;13.904;100.620;2023-07-28T01:04:51;6.63;;;3.53;;
23222;SDS011;11780;13.904;100.620;2023-07-28T01:10:24;7.30;;;5.03;;
23222;SDS011;11780;13.904;100.620;2023-07-28T01:12:59;14.27;;;5.90;;
23222;SDS011;11780;13.904;100.620;2023-07-28T01:15:29;14.43;;;5.17;;
23222;SDS011;11780;13.904;100.620;2023-07-28T01:18:00;8.27;;;4.30;;
23222;SDS011;11780;13.904;100.620;2023-07-28T01:20:31;16.50;;;5.88;;
23222;SDS011;11780;13.904;100.620;2023-07-28T01:25:43;8.65;;;4.47;;
23222;SDS011;11780;13.904;100.620;2023-07-28T01:28:23;12.65;;;5.07;;
23222;SDS011;11780;13.904;100.620;2023-07-28T01:30:54;9.90;;;4.32;;
23222;SDS011;11780;13.904;100.620;2023-07-28T01:33:25;9.37;;;4.63;;
23222;SDS011;11780;13.904;100.620;2023-07-28T01:35:55;7.57;;;4.05;;
23222;SDS011;11780;13.904;100.620;2023-07-28T01:38:25;8.13;;;4.03;;
23222;SDS011;11780;13.904;100.620;2023-07-28T01:40:56;8.07;;;4.10;;
23222;SDS011;11780;13.904;100.620;2023-07-28T01:43:26;10.20;;;4.95;;
23222;SDS011;11780;13.904;100.620;2023-07-28T01:45:57;9.90;;;4.17;;
23222;SDS011;11780;13.904;100.620;2023-07-28T01:48:27;7.43;;;3.85;;
23222;SDS011;11780;13.904;100.620;2023-07-28T01:50:58;10.17;;;4.67;;
23222;SDS011;11780;13.904;100.620;2023-07-28T01:53:28;7.50;;;3.63;;
23222;SDS011;11780;13.904;100.620;2023-07-28T01:55:59;8.70;;;3.90;;
23222;SDS011;11780;13.904;100.620;2023-07-28T01:58:31;9.13;;;4.00;;
23222;SDS011;11780;13.904;100.620;2023-07-28T02:01:02;6.47;;;3.60;;
23222;SDS011;11780;13.904;100.620;2023-07-28T02:03:32;9.23;;;4.50;;
23222;SDS011;11780;13.904;100.620;2023-07-28T02:06:03;12.50;;;5.77;;
23222;SDS011;11780;13.904;100.620;2023-07-28T02:08:33;12.68;;;5.10;;
23222;SDS011;11780;13.904;100.620;2023-07-28T02:11:03;18.45;;;7.95;;
23222;SDS011;11780;13.904;100.620;2023-07-28T02:13:34;11.10;;;5.43;;
23222;SDS011;11780;13.904;100.620;2023-07-28T02:16:04;15.50;;;6.68;;
23222;SDS011;11780;13.904;100.620;2023-07-28T02:18:34;15.57;;;7.13;;
23222;SDS011;11780;13.904;100.620;2023-07-28T02:21:07;17.23;;;8.00;;
23222;SDS011;11780;13.904;100.620;2023-07-28T02:23:38;10.13;;;5.82;;
23222;SDS011;11780;13.904;100.620;2023-07-28T02:26:08;10.30;;;6.50;;
23222;SDS011;11780;13.904;100.620;2023-07-28T02:28:39;14.20;;;6.35;;
23222;SDS011;11780;13.904;100.620;2023-07-28T02:31:10;10.18;;;5.22;;
23222;SDS011;11780;13.904;100.620;2023-07-28T02:33:40;11.18;;;5.65;;
23222;SDS011;11780;13.904;100.620;2023-07-28T02:36:10;10.48;;;5.35;;
23222;SDS011;11780;13.904;100.620;2023-07-28T02:38:41;9.03;;;4.97;;
23222;SDS011;11780;13.904;100.620;2023-07-28T02:41:11;7.23;;;4.27;;
23222;SDS011;11780;13.904;100.620;2023-07-28T02:43:42;5.97;;;4.18;;
23222;SDS011;11780;13.904;100.620;2023-07-28T02:46:12;8.75;;;4.38;;
23222;SDS011;11780;13.904;100.620;2023-07-28T02:48:42;11.02;;;5.35;;
23222;SDS011;11780;13.904;100.620;2023-07-28T02:51:12;9.98;;;4.13;;
23222;SDS011;11780;13.904;100.620;2023-07-28T02:53:43;6.68;;;4.60;;
23222;SDS011;11780;13.904;100.620;2023-07-28T02:56:13;9.20;;;4.30;;
23222;SDS011;11780;13.904;100.620;2023-07-28T02:58:44;8.07;;;3.70;;
23222;SDS011;11780;13.904;100.620;2023-07-28T03:01:14;8.02;;;3.83;;
23222;SDS011;11780;13.904;100.620;2023-07-28T03:03:44;6.53;;;3.73;;
23222;SDS011;11780;13.904;100.620;2023-07-28T03:06:17;5.50;;;3.92;;
23222;SDS011;11780;13.904;100.620;2023-07-28T03:08:59;8.77;;;4.10;;
23222;SDS011;11780;13.904;100.620;2023-07-28T03:11:52;8.40;;;3.65;;
23222;SDS011;11780;13.904;100.620;2023-07-28T03:14:22;6.53;;;3.77;;
23222;SDS011;11780;13.904;100.620;2023-07-28T03:16:53;5.67;;;3.87;;
23222;SDS011;11780;13.904;100.620;2023-07-28T03:19:23;10.40;;;3.92;;
23222;SDS011;11780;13.904;100.620;2023-07-28T03:21:54;8.52;;;3.80;;
23222;SDS011;11780;13.904;100.620;2023-07-28T03:24:24;10.55;;;4.00;;
23222;SDS011;11780;13.904;100.620;2023-07-28T03:26:55;6.30;;;3.17;;
23222;SDS011;11780;13.904;100.620;2023-07-28T03:29:25;6.13;;;3.38;;
23222;SDS011;11780;13.904;100.620;2023-07-28T03:31:56;8.30;;;3.73;;
23222;SDS011;11780;13.904;100.620;2023-07-28T03:34:26;7.47;;;3.37;;
23222;SDS011;11780;13.904;100.620;2023-07-28T03:36:59;7.75;;;3.65;;
23222;SDS011;11780;13.904;100.620;2023-07-28T03:39:29;4.30;;;3.13;;
23222;SDS011;11780;13.904;100.620;2023-07-28T03:42:00;5.40;;;3.13;;
23222;SDS011;11780;13.904;100.620;2023-07-28T03:44:31;4.83;;;2.90;;
23222;SDS011;11780;13.904;100.620;2023-07-28T03:47:01;5.53;;;3.40;;
23222;SDS011;11780;13.904;100.620;2023-07-28T03:49:32;5.93;;;3.28;;
23222;SDS011;11780;13.904;100.620;2023-07-28T03:52:03;6.70;;;2.83;;
23222;SDS011;11780;13.904;100.620;2023-07-28T03:54:33;3.93;;;2.73;;
23222;SDS011;11780;13.904;100.620;2023-07-28T03:57:04;6.07;;;2.70;;
23222;SDS011;11780;13.904;100.620;2023-07-28T03:59:34;4.10;;;2.92;;
23222;SDS011;11780;13.904;100.620;2023-07-28T04:02:05;5.72;;;2.88;;
23222;SDS011;11780;13.904;100.620;2023-07-28T04:04:35;4.13;;;3.00;;
23222;SDS011;11780;13.904;100.620;2023-07-28T04:07:06;3.90;;;2.65;;
23222;SDS011;11780;13.904;100.620;2023-07-28T04:09:37;5.40;;;2.78;;
23222;SDS011;11780;13.904;100.620;2023-07-28T04:12:07;4.07;;;2.85;;
23222;SDS011;11780;13.904;100.620;2023-07-28T04:14:37;5.17;;;3.03;;
23222;SDS011;11780;13.904;100.620;2023-07-28T04:17:08;6.57;;;3.17;;
23222;SDS011;11780;13.904;100.620;2023-07-28T04:19:38;4.07;;;2.70;;
23222;SDS011;11780;13.904;100.620;2023-07-28T04:22:08;7.88;;;3.33;;
23222;SDS011;11780;13.904;100.620;2023-07-28T04:24:39;4.10;;;3.00;;
23222;SDS011;11780;13.904;100.620;2023-07-28T04:27:09;7.53;;;3.40;;
23222;SDS011;11780;13.904;100.620;2023-07-28T04:29:40;3.20;;;2.90;;
23222;SDS011;11780;13.904;100.620;2023-07-28T04:32:12;6.50;;;3.08;;
23222;SDS011;11780;13.904;100.620;2023-07-28T04:34:42;3.57;;;3.20;;
23222;SDS011;11780;13.904;100.620;2023-07-28T04:37:15;7.07;;;3.10;;
23222;SDS011;11780;13.904;100.620;2023-07-28T04:40:04;5.38;;;2.95;;
23222;SDS011;11780;13.904;100.620;2023-07-28T04:42:37;5.70;;;3.70;;
23222;SDS011;11780;13.904;100.620;2023-07-28T04:45:07;7.97;;;3.60;;
23222;SDS011;11780;13.904;100.620;2023-07-28T04:47:39;6.07;;;3.28;;
23222;SDS011;11780;13.904;100.620;2023-07-28T04:50:10;5.40;;;3.10;;
23222;SDS011;11780;13.904;100.620;2023-07-28T04:53:12;3.85;;;3.00;;
23222;SDS011;11780;13.904;100.620;2023-07-28T04:56:06;5.47;;;2.70;;
23222;SDS011;11780;13.904;100.620;2023-07-28T04:58:37;4.45;;;2.97;;
23222;SDS011;11780;13.904;100.620;2023-07-28T05:01:08;4.83;;;2.80;;
23222;SDS011;11780;13.904;100.620;2023-07-28T05:03:41;4.95;;;3.00;;
23222;SDS011;11780;13.904;100.620;2023-07-28T05:06:18;3.63;;;2.97;;
23222;SDS011;11780;13.904;100.620;2023-07-28T05:08:49;2.90;;;2.35;;
23222;SDS011;11780;13.904;100.620;2023-07-28T05:11:37;5.28;;;2.50;;
23222;SDS011;11780;13.904;100.620;2023-07-28T05:14:07;3.58;;;2.38;;
23222;SDS011;11780;13.904;100.620;2023-07-28T05:16:38;6.68;;;2.20;;
23222;SDS011;11780;13.904;100.620;2023-07-28T05:19:09;4.37;;;2.10;;
23222;SDS011;11780;13.904;100.620;2023-07-28T05:21:57;3.97;;;2.20;;
23222;SDS011;11780;13.904;100.620;2023-07-28T05:24:43;4.22;;;1.90;;
23222;SDS011;11780;13.904;100.620;2023-07-28T05:27:15;3.60;;;1.95;;
23222;SDS011;11780;13.904;100.620;2023-07-28T05:29:47;3.97;;;2.25;;
23222;SDS011;11780;13.904;100.620;2023-07-28T05:32:17;4.03;;;2.03;;
23222;SDS011;11780;13.904;100.620;2023-07-28T05:35:08;2.25;;;1.92;;
23222;SDS011;11780;13.904;100.620;2023-07-28T05:37:38;2.77;;;1.77;;
23222;SDS011;11780;13.904;100.620;2023-07-28T05:40:09;2.27;;;1.97;;
23222;SDS011;11780;13.904;100.620;2023-07-28T05:42:40;2.67;;;1.98;;
23222;SDS011;11780;13.904;100.620;2023-07-28T05:45:11;3.03;;;2.00;;
23222;SDS011;11780;13.904;100.620;2023-07-28T05:47:42;2.53;;;2.00;;
23222;SDS011;11780;13.904;100.620;2023-07-28T05:50:12;7.30;;;2.23;;
23222;SDS011;11780;13.904;100.620;2023-07-28T05:52:42;4.00;;;1.83;;
23222;SDS011;11780;13.904;100.620;2023-07-28T05:55:13;3.90;;;2.10;;
23222;SDS011;11780;13.904;100.620;2023-07-28T05:57:43;2.40;;;1.97;;
23222;SDS011;11780;13.904;100.620;2023-07-28T06:00:13;4.43;;;2.07;;
23222;SDS011;11780;13.904;100.620;2023-07-28T06:02:44;4.07;;;2.00;;
23222;SDS011;11780;13.904;100.620;2023-07-28T06:05:31;3.72;;;2.20;;
23222;SDS011;11780;13.904;100.620;2023-07-28T06:08:02;3.57;;;1.87;;
23222;SDS011;11780;13.904;100.620;2023-07-28T06:10:32;3.73;;;1.80;;
23222;SDS011;11780;13.904;100.620;2023-07-28T06:13:02;3.47;;;2.30;;
23222;SDS011;11780;13.904;100.620;2023-07-28T06:15:33;4.67;;;2.10;;
23222;SDS011;11780;13.904;100.620;2023-07-28T06:18:04;5.25;;;2.22;;
23222;SDS011;11780;13.904;100.620;2023-07-28T06:20:34;2.47;;;2.00;;
23222;SDS011;11780;13.904;100.620;2023-07-28T06:23:05;5.63;;;2.43;;
23222;SDS011;11780;13.904;100.620;2023-07-28T06:25:35;4.53;;;2.13;;
23222;SDS011;11780;13.904;100.620;2023-07-28T06:28:12;4.38;;;2.40;;
23222;SDS011;11780;13.904;100.620;2023-07-28T06:30:43;2.90;;;2.00;;
23222;SDS011;11780;13.904;100.620;2023-07-28T06:33:13;3.17;;;2.10;;
23222;SDS011;11780;13.904;100.620;2023-07-28T06:35:44;3.63;;;2.03;;
23222;SDS011;11780;13.904;100.620;2023-07-28T06:38:14;2.33;;;2.13;;
23222;SDS011;11780;13.904;100.620;2023-07-28T06:40:44;3.60;;;2.40;;
23222;SDS011;11780;13.904;100.620;2023-07-28T06:43:15;5.00;;;2.10;;
23222;SDS011;11780;13.904;100.620;2023-07-28T06:45:55;4.05;;;2.08;;
23222;SDS011;11780;13.904;100.620;2023-07-28T06:48:26;2.75;;;1.92;;
23222;SDS011;11780;13.904;100.620;2023-07-28T06:50:56;2.73;;;1.93;;
23222;SDS011;11780;13.904;100.620;2023-07-28T06:53:27;3.23;;;2.20;;
23222;SDS011;11780;13.904;100.620;2023-07-28T06:55:57;3.53;;;2.35;;
23222;SDS011;11780;13.904;100.620;2023-07-28T06:58:27;3.13;;;2.00;;
23222;SDS011;11780;13.904;100.620;2023-07-28T07:00:58;5.25;;;2.30;;
23222;SDS011;11780;13.904;100.620;2023-07-28T07:03:28;3.00;;;2.40;;
23222;SDS011;11780;13.904;100.620;2023-07-28T07:05:58;3.50;;;2.10;;
23222;SDS011;11780;13.904;100.620;2023-07-28T07:08:29;3.40;;;2.35;;
23222;SDS011;11780;13.904;100.620;2023-07-28T07:10:59;4.13;;;2.30;;
23222;SDS011;11780;13.904;100.620;2023-07-28T07:13:30;3.73;;;2.20;;
23222;SDS011;11780;13.904;100.620;2023-07-28T07:16:00;3.22;;;2.05;;
23222;SDS011;11780;13.904;100.620;2023-07-28T07:18:30;4.13;;;2.10;;
23222;SDS011;11780;13.904;100.620;2023-07-28T07:21:01;5.43;;;2.30;;
23222;SDS011;11780;13.904;100.620;2023-07-28T07:23:36;2.78;;;2.30;;
23222;SDS011;11780;13.904;100.620;2023-07-28T07:26:24;4.45;;;2.33;;
23222;SDS011;11780;13.904;100.620;2023-07-28T07:28:54;3.77;;;2.27;;
23222;SDS011;11780;13.904;100.620;2023-07-28T07:31:25;4.95;;;2.40;;
23222;SDS011;11780;13.904;100.620;2023-07-28T07:33:55;3.67;;;2.00;;
23222;SDS011;11780;13.904;100.620;2023-07-28T07:36:26;3.10;;;2.10;;
23222;SDS011;11780;13.904;100.620;2023-07-28T07:38:56;5.47;;;2.70;;
23222;SDS011;11780;13.904;100.620;2023-07-28T07:41:26;5.13;;;2.45;;
23222;SDS011;11780;13.904;100.620;2023-07-28T07:43:59;5.03;;;2.03;;
23222;SDS011;11780;13.904;100.620;2023-07-28T07:46:29;3.10;;;2.30;;
23222;SDS011;11780;13.904;100.620;2023-07-28T07:49:00;4.57;;;2.87;;
23222;SDS011;11780;13.904;100.620;2023-07-28T07:51:30;4.03;;;2.40;;
23222;SDS011;11780;13.904;100.620;2023-07-28T07:54:03;3.08;;;2.60;;
23222;SDS011;11780;13.904;100.620;2023-07-28T07:56:34;5.37;;;2.70;;
23222;SDS011;11780;13.904;100.620;2023-07-28T07:59:04;4.78;;;2.80;;
23222;SDS011;11780;13.904;100.620;2023-07-28T08:01:34;3.75;;;2.85;;
23222;SDS011;11780;13.904;100.620;2023-07-28T08:04:05;5.70;;;3.00;;
23222;SDS011;11780;13.904;100.620;2023-07-28T08:06:36;5.83;;;2.70;;
23222;SDS011;11780;13.904;100.620;2023-07-28T08:09:06;6.68;;;3.00;;
23222;SDS011;11780;13.904;100.620;2023-07-28T08:11:36;4.80;;;2.95;;
23222;SDS011;11780;13.904;100.620;2023-07-28T08:14:07;3.43;;;2.40;;
23222;SDS011;11780;13.904;100.620;2023-07-28T08:16:37;4.50;;;3.05;;
23222;SDS011;11780;13.904;100.620;2023-07-28T08:19:07;9.70;;;3.53;;
23222;SDS011;11780;13.904;100.620;2023-07-28T08:24:09;6.70;;;4.10;;
23222;SDS011;11780;13.904;100.620;2023-07-28T08:26:39;16.37;;;7.70;;
23222;SDS011;11780;13.904;100.620;2023-07-28T08:29:09;22.40;;;9.73;;
23222;SDS011;11780;13.904;100.620;2023-07-28T08:31:40;15.27;;;7.65;;
23222;SDS011;11780;13.904;100.620;2023-07-28T08:36:41;14.45;;;7.57;;
23222;SDS011;11780;13.904;100.620;2023-07-28T08:39:12;14.85;;;6.78;;
23222;SDS011;11780;13.904;100.620;2023-07-28T08:41:44;14.82;;;6.72;;
23222;SDS011;11780;13.904;100.620;2023-07-28T08:44:14;13.70;;;6.97;;
23222;SDS011;11780;13.904;100.620;2023-07-28T08:46:45;11.77;;;5.83;;
23222;SDS011;11780;13.904;100.620;2023-07-28T08:49:16;10.23;;;5.07;;
23222;SDS011;11780;13.904;100.620;2023-07-28T08:51:49;9.47;;;4.73;;
23222;SDS011;11780;13.904;100.620;2023-07-28T08:54:20;10.10;;;4.70;;
23222;SDS011;11780;13.904;100.620;2023-07-28T08:59:22;8.10;;;4.40;;
23222;SDS011;11780;13.904;100.620;2023-07-28T09:01:57;10.18;;;4.65;;
23222;SDS011;11780;13.904;100.620;2023-07-28T09:04:28;7.18;;;3.80;;
23222;SDS011;11780;13.904;100.620;2023-07-28T09:06:59;7.73;;;3.90;;
23222;SDS011;11780;13.904;100.620;2023-07-28T09:09:31;7.57;;;4.35;;
23222;SDS011;11780;13.904;100.620;2023-07-28T09:12:03;7.43;;;4.25;;
23222;SDS011;11780;13.904;100.620;2023-07-28T09:14:37;8.05;;;4.30;;
23222;SDS011;11780;13.904;100.620;2023-07-28T09:17:11;8.38;;;4.32;;
23222;SDS011;11780;13.904;100.620;2023-07-28T09:19:53;6.25;;;4.20;;
23222;SDS011;11780;13.904;100.620;2023-07-28T09:22:26;8.18;;;4.50;;
23222;SDS011;11780;13.904;100.620;2023-07-28T09:25:00;6.40;;;4.45;;
23222;SDS011;11780;13.904;100.620;2023-07-28T09:27:51;5.47;;;3.97;;
23222;SDS011;11780;13.904;100.620;2023-07-28T09:30:22;8.00;;;4.82;;
23222;SDS011;11780;13.904;100.620;2023-07-28T09:32:54;8.60;;;4.63;;
23222;SDS011;11780;13.904;100.620;2023-07-28T09:35:25;8.15;;;4.30;;
23222;SDS011;11780;13.904;100.620;2023-07-28T09:37:55;7.30;;;4.60;;
23222;SDS011;11780;13.904;100.620;2023-07-28T09:40:27;7.38;;;4.93;;
23222;SDS011;11780;13.904;100.620;2023-07-28T09:42:58;8.95;;;5.10;;
23222;SDS011;11780;13.904;100.620;2023-07-28T09:45:28;6.45;;;4.20;;
23222;SDS011;11780;13.904;100.620;2023-07-28T09:48:08;8.70;;;5.13;;
23222;SDS011;11780;13.904;100.620;2023-07-28T09:50:40;6.03;;;4.03;;
23222;SDS011;11780;13.904;100.620;2023-07-28T09:53:12;5.18;;;4.38;;
23222;SDS011;11780;13.904;100.620;2023-07-28T09:55:43;6.65;;;4.70;;
23222;SDS011;11780;13.904;100.620;2023-07-28T09:58:16;6.53;;;4.13;;
23222;SDS011;11780;13.904;100.620;2023-07-28T10:00:49;5.57;;;3.97;;
23222;SDS011;11780;13.904;100.620;2023-07-28T10:03:20;8.52;;;4.32;;
23222;SDS011;11780;13.904;100.620;2023-07-28T10:05:51;6.82;;;3.70;;
23222;SDS011;11780;13.904;100.620;2023-07-28T10:08:22;8.90;;;4.70;;
23222;SDS011;11780;13.904;100.620;2023-07-28T10:10:53;7.93;;;5.45;;
23222;SDS011;11780;13.904;100.620;2023-07-28T10:13:23;8.93;;;5.30;;
23222;SDS011;11780;13.904;100.620;2023-07-28T10:15:56;7.40;;;4.60;;
23222;SDS011;11780;13.904;100.620;2023-07-28T10:18:31;9.77;;;5.43;;
23222;SDS011;11780;13.904;100.620;2023-07-28T10:21:05;11.63;;;6.30;;
23222;SDS011;11780;13.904;100.620;2023-07-28T10:23:43;14.48;;;6.53;;
23222;SDS011;11780;13.904;100.620;2023-07-28T10:29:13;11.35;;;5.03;;
23222;SDS011;11780;13.904;100.620;2023-07-28T10:31:54;6.32;;;4.88;;
23222;SDS011;11780;13.904;100.620;2023-07-28T10:34:27;7.10;;;4.30;;
23222;SDS011;11780;13.904;100.620;2023-07-28T10:36:59;8.60;;;4.63;;
23222;SDS011;11780;13.904;100.620;2023-07-28T10:39:30;8.18;;;4.53;;
23222;SDS011;11780;13.904;100.620;2023-07-28T10:42:07;7.05;;;4.25;;
23222;SDS011;11780;13.904;100.620;2023-07-28T10:44:38;6.88;;;4.70;;
23222;SDS011;11780;13.904;100.620;2023-07-28T10:47:10;6.47;;;4.40;;
23222;SDS011;11780;13.904;100.620;2023-07-28T10:49:42;5.72;;;3.88;;
23222;SDS011;11780;13.904;100.620;2023-07-28T10:52:15;5.40;;;4.15;;
23222;SDS011;11780;13.904;100.620;2023-07-28T10:54:46;7.70;;;4.47;;
23222;SDS011;11780;13.904;100.620;2023-07-28T10:57:16;5.20;;;4.40;;
23222;SDS011;11780;13.904;100.620;2023-07-28T10:59:46;6.47;;;4.13;;
23222;SDS011;11780;13.904;100.620;2023-07-28T11:04:48;4.63;;;3.92;;
23222;SDS011;11780;13.904;100.620;2023-07-28T11:07:18;8.47;;;3.80;;
23222;SDS011;11780;13.904;100.620;2023-07-28T11:09:50;6.68;;;3.53;;
23222;SDS011;11780;13.904;100.620;2023-07-28T11:12:20;7.38;;;3.67;;
23222;SDS011;11780;13.904;100.620;2023-07-28T11:14:51;7.63;;;3.60;;
23222;SDS011;11780;13.904;100.620;2023-07-28T11:17:23;5.95;;;3.35;;
23222;SDS011;11780;13.904;100.620;2023-07-28T11:19:54;6.45;;;4.47;;
23222;SDS011;11780;13.904;100.620;2023-07-28T11:22:25;4.82;;;3.63;;
23222;SDS011;11780;13.904;100.620;2023-07-28T11:24:55;4.50;;;3.67;;
23222;SDS011;11780;13.904;100.620;2023-07-28T11:27:26;5.87;;;3.70;;
23222;SDS011;11780;13.904;100.620;2023-07-28T11:29:57;5.93;;;3.70;;
23222;SDS011;11780;13.904;100.620;2023-07-28T11:32:47;5.72;;;3.53;;
23222;SDS011;11780;13.904;100.620;2023-07-28T11:35:19;5.38;;;3.72;;
23222;SDS011;11780;13.904;100.620;2023-07-28T11:37:54;5.30;;;3.60;;
23222;SDS011;11780;13.904;100.620;2023-07-28T11:40:27;6.95;;;3.72;;
23222;SDS011;11780;13.904;100.620;2023-07-28T11:42:59;5.27;;;3.60;;
23222;SDS011;11780;13.904;100.620;2023-07-28T11:45:29;6.57;;;3.35;;
23222;SDS011;11780;13.904;100.620;2023-07-28T11:48:02;5.70;;;3.27;;
23222;SDS011;11780;13.904;100.620;2023-07-28T11:50:37;4.93;;;3.63;;
23222;SDS011;11780;13.904;100.620;2023-07-28T11:53:09;6.50;;;3.25;;
23222;SDS011;11780;13.904;100.620;2023-07-28T11:55:41;4.45;;;3.65;;
23222;SDS011;11780;13.904;100.620;2023-07-28T11:58:11;4.33;;;3.40;;
23222;SDS011;11780;13.904;100.620;2023-07-28T12:00:42;4.87;;;3.93;;
23222;SDS011;11780;13.904;100.620;2023-07-28T12:05:58;6.97;;;3.75;;
23222;SDS011;11780;13.904;100.620;2023-07-28T12:08:38;6.88;;;3.75;;
23222;SDS011;11780;13.904;100.620;2023-07-28T12:11:15;6.32;;;3.20;;
23222;SDS011;11780;13.904;100.620;2023-07-28T12:14:07;4.78;;;3.50;;
23222;SDS011;11780;13.904;100.620;2023-07-28T12:16:41;9.20;;;3.70;;
23222;SDS011;11780;13.904;100.620;2023-07-28T12:19:20;4.53;;;3.58;;
23222;SDS011;11780;13.904;100.620;2023-07-28T12:21:50;5.17;;;3.53;;
23222;SDS011;11780;13.904;100.620;2023-07-28T12:24:20;6.28;;;3.75;;
23222;SDS011;11780;13.904;100.620;2023-07-28T12:26:51;5.90;;;4.53;;
23222;SDS011;11780;13.904;100.620;2023-07-28T12:29:25;7.03;;;4.00;;
23222;SDS011;11780;13.904;100.620;2023-07-28T12:31:57;7.18;;;4.90;;
23222;SDS011;11780;13.904;100.620;2023-07-28T12:34:29;6.90;;;4.45;;
23222;SDS011;11780;13.904;100.620;2023-07-28T12:37:17;5.13;;;3.95;;
23222;SDS011;11780;13.904;100.620;2023-07-28T12:40:08;10.75;;;3.85;;
23222;SDS011;11780;13.904;100.620;2023-07-28T12:42:42;6.80;;;3.25;;
23222;SDS011;11780;13.904;100.620;2023-07-28T12:45:16;5.95;;;3.40;;
23222;SDS011;11780;13.904;100.620;2023-07-28T12:47:49;6.55;;;4.18;;
23222;SDS011;11780;13.904;100.620;2023-07-28T12:50:22;5.45;;;4.55;;
23222;SDS011;11780;13.904;100.620;2023-07-28T12:52:53;5.80;;;4.20;;
23222;SDS011;11780;13.904;100.620;2023-07-28T15:09:30;8.80;;;5.63;;
23222;SDS011;11780;13.904;100.620;2023-07-28T15:12:01;11.57;;;6.00;;
23222;SDS011;11780;13.904;100.620;2023-07-28T15:14:31;8.68;;;6.15;;
23222;SDS011;11780;13.904;100.620;2023-07-28T15:17:02;12.83;;;6.40;;
23222;SDS011;11780;13.904;100.620;2023-07-28T15:19:32;16.60;;;7.30;;
23222;SDS011;11780;13.904;100.620;2023-07-28T15:22:03;14.68;;;7.75;;
23222;SDS011;11780;13.904;100.620;2023-07-28T15:24:34;13.67;;;6.97;;
23222;SDS011;11780;13.904;100.620;2023-07-28T15:27:06;9.38;;;5.95;;
23222;SDS011;11780;13.904;100.620;2023-07-28T15:29:36;12.32;;;6.18;;
23222;SDS011;11780;13.904;100.620;2023-07-28T15:32:06;9.93;;;7.00;;
23222;SDS011;11780;13.904;100.620;2023-07-28T15:34:37;12.03;;;6.17;;
23222;SDS011;11780;13.904;100.620;2023-07-28T15:37:07;10.50;;;6.80;;
23222;SDS011;11780;13.904;100.620;2023-07-28T15:39:38;7.60;;;5.67;;
23222;SDS011;11780;13.904;100.620;2023-07-28T15:42:08;9.00;;;5.97;;
23222;SDS011;11780;13.904;100.620;2023-07-28T15:44:38;9.70;;;6.47;;
23222;SDS011;11780;13.904;100.620;2023-07-28T15:47:09;11.40;;;6.03;;
23222;SDS011;11780;13.904;100.620;2023-07-28T15:49:40;8.50;;;6.17;;
23222;SDS011;11780;13.904;100.620;2023-07-28T15:52:10;8.65;;;5.65;;
23222;SDS011;11780;13.904;100.620;2023-07-28T15:54:40;8.67;;;6.20;;
23222;SDS011;11780;13.904;100.620;2023-07-28T15:57:11;8.47;;;5.60;;
23222;SDS011;11780;13.904;100.620;2023-07-28T15:59:42;8.32;;;5.97;;
23222;SDS011;11780;13.904;100.620;2023-07-28T16:02:14;9.73;;;5.78;;
23222;SDS011;11780;13.904;100.620;2023-07-28T16:04:45;10.77;;;5.53;;
23222;SDS011;11780;13.904;100.620;2023-07-28T16:07:16;10.77;;;5.75;;
23222;SDS011;11780;13.904;100.620;2023-07-28T16:09:46;7.27;;;5.73;;
23222;SDS011;11780;13.904;100.620;2023-07-28T16:12:16;8.83;;;6.03;;
23222;SDS011;11780;13.904;100.620;2023-07-28T16:14:47;7.17;;;5.33;;
23222;SDS011;11780;13.904;100.620;2023-07-28T16:17:17;8.03;;;5.50;;
23222;SDS011;11780;13.904;100.620;2023-07-28T16:19:49;10.07;;;5.33;;
23222;SDS011;11780;13.904;100.620;2023-07-28T16:22:20;8.27;;;5.22;;
23222;SDS011;11780;13.904;100.620;2023-07-28T16:24:50;9.70;;;5.55;;
23222;SDS011;11780;13.904;100.620;2023-07-28T16:27:21;8.18;;;5.45;;
23222;SDS011;11780;13.904;100.620;2023-07-28T16:29:51;9.40;;;5.77;;
23222;SDS011;11780;13.904;100.620;2023-07-28T16:32:21;10.05;;;5.95;;
23222;SDS011;11780;13.904;100.620;2023-07-28T16:34:52;10.57;;;6.07;;
23222;SDS011;11780;13.904;100.620;2023-07-28T16:37:22;8.83;;;6.17;;
23222;SDS011;11780;13.904;100.620;2023-07-28T16:39:53;9.75;;;5.60;;
23222;SDS011;11780;13.904;100.620;2023-07-28T16:42:23;7.27;;;5.97;;
23222;SDS011;11780;13.904;100.620;2023-07-28T16:44:54;7.23;;;5.80;;
23222;SDS011;11780;13.904;100.620;2023-07-28T16:47:24;7.70;;;5.60;;
23222;SDS011;11780;13.904;100.620;2023-07-28T16:49:55;8.90;;;5.53;;
23222;SDS011;11780;13.904;100.620;2023-07-28T16:52:25;12.00;;;5.47;;
23222;SDS011;11780;13.904;100.620;2023-07-28T16:54:56;9.38;;;5.90;;
23222;SDS011;11780;13.904;100.620;2023-07-28T16:57:27;10.27;;;6.37;;
23222;SDS011;11780;13.904;100.620;2023-07-28T16:59:57;10.30;;;5.63;;
23222;SDS011;11780;13.904;100.620;2023-07-28T17:02:27;6.32;;;5.20;;
23222;SDS011;11780;13.904;100.620;2023-07-28T17:04:58;6.60;;;5.53;;
23222;SDS011;11780;13.904;100.620;2023-07-28T17:07:28;6.40;;;5.57;;
23222;SDS011;11780;13.904;100.620;2023-07-28T17:09:58;10.60;;;5.50;;
23222;SDS011;11780;13.904;100.620;2023-07-28T17:12:29;10.23;;;6.63;;
23222;SDS011;11780;13.904;100.620;2023-07-28T17:14:59;9.27;;;5.90;;
23222;SDS011;11780;13.904;100.620;2023-07-28T17:17:30;7.20;;;5.40;;
23222;SDS011;11780;13.904;100.620;2023-07-28T17:20:01;10.13;;;6.28;;
23222;SDS011;11780;13.904;100.620;2023-07-28T17:22:32;7.55;;;5.28;;
23222;SDS011;11780;13.904;100.620;2023-07-28T17:25:04;6.40;;;5.18;;